Flight Track Log - Related Links

Times and Time Zones

All times are in EDT time to prevent confusion due to time zone crossing. See the N61429 flight status page for this flight to view local times or setup timezone preferences in your user account.

Time Position Orientation Groundspeed Altitude Reporting Facility
EDT Latitude Longitude Course Direction KTS MPH feet Rate Location/Type
Sun 05:47:56 PM 39.6800 -90.4981 340° North 232 267 6,600  Level Kansas City Center
Sun 05:48:58 PM 39.7278 -90.5436 324° Northwest 231 266 6,600  Level Kansas City Center
Sun 05:50:00 PM 39.7819 -90.5847 330° Northwest 230 265 6,600 48 Level Kansas City Center
Sun 05:51:02 PM 39.8553 -90.6194 340° North 232 267 6,700 -145 Climbing Kansas City Center
Sun 05:52:00 PM 38.8030 -90.2663 340° North  Level Estimated
Sun 05:52:04 PM 39.9208 -90.6472 342° North 230 265 6,300  Level Kansas City Center
Sun 05:53:00 PM 38.8417 -90.2849 340° North  Level Estimated
Sun 05:53:06 PM 39.9758 -90.6819 334° Northwest 232 267 6,400  Level Kansas City Center
Sun 05:54:08 PM 40.0358 -90.7186 335° Northwest 235 270 6,400 -48 Level Kansas City Center
Sun 05:55:10 PM 40.0964 -90.7539 336° Northwest 236 272 6,300  Descending Kansas City Center
Sun 05:55:41 PM 40.1317 -90.7786 332° Northwest 234 269 6,400 129 Climbing Chicago Center
Sun 05:56:43 PM 40.1886 -90.8111 336° Northwest 229 264 6,500  Climbing Chicago Center
Sun 05:57:45 PM 40.2494 -90.8428 338° Northwest 230 265 6,400  Descending Chicago Center
Sun 05:58:48 PM 40.3103 -90.8781 336° Northwest 235 270 6,500 48 Climbing Chicago Center
Sun 05:59:50 PM 40.3714 -90.9156 335° Northwest 238 274 6,500 -97 Level Chicago Center
Sun 06:00:52 PM 40.4442 -90.9567 337° Northwest 236 272 6,300 -48 Descending Chicago Center
Sun 06:01:54 PM 40.5078 -90.9781 346° North 236 272 6,400 48 Climbing Chicago Center
Sun 06:02:56 PM 40.5722 -91.0028 344° North 238 274 6,400 -48 Level Chicago Center
Sun 06:03:58 PM 40.6322 -91.0356 337° Northwest 236 272 6,300  Descending Chicago Center
Sun 06:05:01 PM 40.6944 -91.0747 334° Northwest 241 277 6,400 144 Climbing Chicago Center
Sun 06:06:03 PM 40.7464 -91.1247 324° Northwest 237 273 6,600  Climbing Chicago Center
Sun 06:07:05 PM 40.8133 -91.1739 331° Northwest 231 266 6,400 -97 Descending Chicago Center
Sun 06:08:07 PM 40.8806 -91.1989 344° North 245 282 6,400 48 Level Chicago Center
Sun 06:09:09 PM 40.9486 -91.2175 348° North 250 288 6,500 48 Climbing Chicago Center
Sun 06:10:11 PM 41.0128 -91.2392 346° North 243 280 6,500  Level Chicago Center
Sun 06:11:13 PM 41.0761 -91.2611 345° North 239 275 6,500 -48 Level Chicago Center
Sun 06:12:15 PM 41.1428 -91.2897 342° North 245 282 6,400 -97 Descending Chicago Center
Sun 06:13:17 PM 41.2072 -91.3153 343° North 249 287 6,300 -145 Descending Chicago Center
Sun 06:14:19 PM 41.2822 -91.3533 339° North 246 283 6,100 96 Descending Chicago Center
Sun 06:15:22 PM 41.3439 -91.3889 337° Northwest 247 284 6,500 288 Climbing Chicago Center
Sun 06:16:24 PM 41.3992 -91.4344 328° Northwest 237 273 6,700 32 Climbing Chicago Center
Sun 06:18:28 PM 41.5303 -91.5128 336° Northwest 240 276 6,600 32 Descending Chicago Center
Sun 06:19:30 PM 41.5961 -91.5358 345° North 245 282 6,800  Climbing Chicago Center
Sun 06:20:32 PM 41.6631 -91.5539 349° North 247 284 6,600 -145 Descending Chicago Center
Sun 06:21:34 PM 41.7308 -91.5764 346° North 251 289 6,500 -48 Descending Chicago Center
Sun 06:22:36 PM 41.8094 -91.6089 343° North 250 288 6,500  Level Chicago Center
Sun 06:23:38 PM 41.8758 -91.6333 345° North 249 287 6,500 -48 Level Chicago Center
Sun 06:24:40 PM 41.9439 -91.6506 349° North 250 288 6,400  Descending Chicago Center
Sun 06:25:42 PM 42.0078 -91.6764 343° North 246 283 6,500  Climbing Chicago Center
Sun 06:26:44 PM 42.0697 -91.7147 335° Northwest 244 281 6,400 -48 Descending Chicago Center
Sun 06:27:47 PM 42.1450 -91.7478 342° North 247 284 6,400 48 Level Chicago Center
Sun 06:28:49 PM 42.2047 -91.7842 336° Northwest 238 274 6,500  Climbing Chicago Center
Sun 06:29:51 PM 42.2656 -91.8206 336° Northwest 239 275 6,400 48 Descending Chicago Center
Sun 06:30:53 PM 42.3267 -91.8567 336° Northwest 240 276 6,600 48 Climbing Chicago Center
Sun 06:31:55 PM 42.3856 -91.8939 335° Northwest 238 274 6,500 -48 Descending Chicago Center
Sun 06:32:57 PM 42.4447 -91.9331 334° Northwest 237 273 6,500  Level Chicago Center
Sun 06:33:59 PM 42.5175 -91.9769 336° Northwest 239 275 6,500  Level Chicago Center
Sun 06:35:01 PM 42.5786 -92.0125 337° Northwest 239 275 6,500  Level Chicago Center
Sun 06:36:03 PM 42.6367 -92.0519 333° Northwest 237 273 6,500  Level Chicago Center
Sun 06:37:05 PM 42.6969 -92.0867 337° Northwest 236 272 6,500  Level Chicago Center
Sun 06:38:07 PM 42.7586 -92.1197 339° North 237 273 6,500  Level Chicago Center
Sun 06:39:09 PM 42.8333 -92.1572 340° North 238 274 6,500 48 Level Chicago Center
Sun 06:40:12 PM 42.8933 -92.1961 335° Northwest 239 275 6,600  Climbing Chicago Center
Sun 06:41:14 PM 42.9478 -92.2428 328° Northwest 236 272 6,500  Descending Chicago Center
Sun 06:42:16 PM 43.0011 -92.2903 327° Northwest 234 269 6,600 97 Climbing Chicago Center
Sun 06:43:18 PM 43.0556 -92.3375 328° Northwest 233 268 6,700 -387 Climbing Chicago Center
Sun 06:44:20 PM 43.1161 -92.3781 334° Northwest 240 276 5,800 -629 Descending Chicago Center
Sun 06:45:22 PM 43.1925 -92.4300 334° Northwest 249 287 5,400 -532 Descending Chicago Center
Sun 06:46:24 PM 43.2578 -92.4708 336° Northwest 256 295 4,700 -435 Descending Chicago Center
Sun 06:47:26 PM 43.3242 -92.5119 336° Northwest 260 299 4,500 -194 Descending Chicago Center
Sun 06:48:28 PM 43.3903 -92.5467 339° North 258 297 4,300 -97 Descending Chicago Center
Sun 06:49:30 PM 43.4708 -92.5797 343° North 256 295 4,300 48 Level Chicago Center
Sun 06:50:32 PM 43.5322 -92.6042 344° North 245 282 4,400 97 Climbing Chicago Center
Sun 06:51:34 PM 43.5956 -92.6283 345° North 239 275 4,500 145 Climbing Chicago Center
Sun 06:52:36 PM 43.6544 -92.6650 336° Northwest 237 273 4,700 96 Climbing Chicago Center
Sun 06:53:39 PM 43.7081 -92.7122 328° Northwest 235 270 4,700  Level Chicago Center
Sun 06:54:41 PM 43.7711 -92.7747 324° Northwest 234 269 4,700 -97 Level Chicago Center
Sun 06:55:43 PM 43.8294 -92.8258 328° Northwest 233 268 4,500 -97 Descending Chicago Center
Sun 06:56:45 PM 43.8806 -92.8531 339° North 234 269 4,500  Level Chicago Center
Sun 06:58:00 PM 43.9792 -92.8808 349° North 238 274 4,500 44 Level Minneapolis Center
Sun 06:59:02 PM 44.0386 -92.9106 340° North 231 266 4,600 97 Climbing Minneapolis Center

Login

Don't have an account? Register now (free) for customized features, flight alerts, and more!